Londonderry, NH (03053)

6:02 AM EST on February 08, 2016 (GMT -0500)
Coleman - E7458 | | Change Station
CLOSE
Current Station
Personal Weather Station
Location: Londonderry, NH
Elevation: 289 ft
Nearby Weather Stations
Active Advisory: Winter Weather Advisory Active Notice: Local Storm Report

Elev 289 ft 42.85 °N, 71.41 °W | Updated 1 minute ago

Mostly Cloudy
Mostly Cloudy
21.2 °F
Feels Like 12 °F
N
7.3
Wind Variable Wind from NNE
Gusts 11.4 mph

Today
High -- | Low -- °F
--% Chance of Precip.
Yesterday
High -- | Low -- °F
Precip. -- in
Pressure 29.99 in
Visibility 10.0 miles
Clouds Overcast 17000 ft
Windchill 12 °F
Dew Point 4 °F
Humidity 47%
Rainfall 0.00 in
Snow Depth Not available.
6:52 AM 5:07 PM
Waning Crescent, 0% visible
METAR KMHT 081053Z 03012G22KT 10SM OVC170 M06/M18 A2993 RMK AO2 SLP153 T10561178
Pressure 29.99 in
Visibility 10.0 miles
Clouds Overcast 17000 ft
Windchill 12 °F
Dew Point 4 °F
Humidity 47%
Rainfall 0.00 in
Snow Depth Not available.
6:52 AM 5:07 PM
Waning Crescent, 0% visible
METAR KMHT 081053Z 03012G22KT 10SM OVC170 M06/M18 A2993 RMK AO2 SLP153 T10561178

10-Day Weather Forecast

Almanac

Astronomy

Feb. 08, 2016 Rise Set
Actual Time
Civil Twilight
Nautical Twilight
Astronomical Twilight
Moon
Length of Visible Light
Length of Day
Tomorrow will be .
, % of the Moon is Illuminated

Today's Extremes

State Highs State Lows

Community

WunderPhotos

Upload Photos

1,891,420 photos uploaded!

WunderBlog® & News

Nearby

Air Quality

  Air Quality AQ Index Pollutant
Not available.

Snow Depth

Station Depth Elevation

Earthquake Activity

City Distance Mag. Time & Date
Minimum magnitude displayed is 2.5.

Coastal Water Temperatures

Place Temperature

Stations

Nearby Weather Stations

Station Location Temp. Windchill Dew Point Humidity Wind Precip. Elev Updated Type
                   

Watches & Warnings

Winter Weather Advisory
Issued: 3:39 AM EST Feb. 8, 2016 – National Weather Service

... Winter Weather Advisory remains in effect from 6 am this
morning to 6 am EST Tuesday...

* hazard types... snow.

* Accumulations... snow accumulation of 3 to 6 inches.

* Timing... snow begins this morning and continues into tonight.
Light snow may continue into Tuesday but the bulk of the
accumulation will be over by Tuesday morning.

* Impacts... roads will become snow covered and slippery. Strong
winds will cause blowing and drifting snow and could lead to
low visibility in spots.

* Winds... north 5 to 15 mph with gusts up to 25 mph.

* Temperatures... in the lower 20s.

Precautionary/preparedness actions...

A Winter Weather Advisory for snow means that periods of snow
will cause primarily travel difficulties. Be prepared for snow
covered roads and limited visibilities... and use caution while
driving.